首页
METAR-TAF:

METAR-TAF

机场 :

Puerto Cabezas, 尼加拉瓜

纬度: 14-03N, 经度: 083-22W, 海拔: 20米

当前天气观测

该预报发布于49分钟前的14:00 UTC
风速8节,风向北转东北
温度 30°C
湿度 79%
气压 1012 hPa
能見度: 7000
多云层高于1600英尺
霾,

METAR: MNPC 141400Z 02008KT 7000 BKN016 30/26 Q1012 HZ

时间: 08:49 (14:49 UTC)

预报

该预报发布于17小时和49分钟前的21:00 UTC
预报有效从14日的 00点(UTC)到 14日的 24点(UTC)
风速10节,风向东北
能見度: 7000
散云层高于1600英尺
短暂存在
从 14日的 04点(UTC)到 14日的 12点(UTC)
风速6节,风向
多云层高于1700英尺
短暂存在
从 14日的 13点(UTC)到 14日的 21点(UTC)
风速20节,风向东北
散云层高于1600英尺, 塔状积云.

TAF: MNPC 132100Z 1400/1424 04010KT 7000 HZ SCT016 TEMPO 1404/1412 35006KT BKN017 TEMPO 1413/1421 05020KT SCT016TCU

超过4000个机场的气象观测和天气预报(METAR&TAF报告)。

可查询的气象台以黄色和红色小点在地图上表示。

将鼠标移到小点上方,可查看气象台名称。

然后点击查看天气观测和预报。

如需切换地图:点击带黑十字的绿色按钮放大地图;点击带横线的绿色按钮缩小地图;或者点击绿色箭头查看邻近地区的地图。


METAR-TAF: